Time;durP1;ratioP1;P1;durP2;ratioP2;P2;SDS_P1;SDS_P2;PMS_P1;PMS_P2;Temp;Humidity;BMP_temperature;BMP_pressure;BME280_temperature;BME280_humidity;BME280_pressure;Samples;Min_cycle;Max_cycle;Signal;HPM_P1;HPM_P2
2021/05/01 00:01:28;;;;;;;66.13;28.97;;;7.40;98.10;;;;;;5123632;28;20224;-78
2021/05/01 00:03:53;;;;;;;57.43;27.40;;;7.50;98.20;;;;;;5112303;28;20183;-75
2021/05/01 00:06:19;;;;;;;64.47;27.53;;;7.50;98.30;;;;;;5113277;28;20274;-76
2021/05/01 00:08:45;;;;;;;56.30;25.90;;;7.50;98.30;;;;;;5114755;28;20633;-74
2021/05/01 00:11:11;;;;;;;60.67;27.33;;;7.50;98.20;;;;;;5111463;28;20187;-75
2021/05/01 00:13:37;;;;;;;69.60;30.00;;;7.50;98.00;;;;;;5110905;28;21138;-75
2021/05/01 00:16:04;;;;;;;67.07;28.50;;;7.50;97.70;;;;;;5109530;28;20708;-75
2021/05/01 00:18:30;;;;;;;70.87;29.20;;;7.50;97.50;;;;;;5107834;28;20242;-78
2021/05/01 00:20:56;;;;;;;74.87;29.00;;;7.40;97.70;;;;;;5108328;28;20999;-76
2021/05/01 00:23:22;;;;;;;56.90;26.53;;;7.50;97.70;;;;;;5097093;28;20417;-75
2021/05/01 00:25:48;;;;;;;69.97;29.77;;;7.50;97.80;;;;;;5110861;28;20412;-75
2021/05/01 00:28:14;;;;;;;62.10;27.73;;;7.50;97.80;;;;;;5095599;28;20210;-75
2021/05/01 00:30:40;;;;;;;63.50;26.60;;;7.60;97.90;;;;;;5092191;28;20428;-74
2021/05/01 00:33:07;;;;;;;61.77;26.33;;;7.60;97.90;;;;;;5105126;28;20239;-76
2021/05/01 00:35:34;;;;;;;57.50;25.80;;;7.70;97.70;;;;;;5102049;28;20413;-75
2021/05/01 00:37:59;;;;;;;56.13;26.13;;;7.70;97.30;;;;;;5103394;28;20419;-74
2021/05/01 00:40:25;;;;;;;51.77;25.30;;;7.70;97.10;;;;;;5090282;28;21218;-76
2021/05/01 00:42:51;;;;;;;58.63;26.53;;;7.70;97.30;;;;;;5105704;28;20267;-75
2021/05/01 00:45:17;;;;;;;53.23;23.57;;;7.70;97.50;;;;;;5110968;28;20197;-77
2021/05/01 00:47:43;;;;;;;60.60;27.27;;;7.80;97.50;;;;;;5101261;28;20186;-74
2021/05/01 00:50:09;;;;;;;65.40;28.30;;;7.80;97.30;;;;;;5099562;28;20416;-76
2021/05/01 00:52:36;;;;;;;64.83;27.57;;;7.80;97.00;;;;;;5111242;28;20468;-76
2021/05/01 00:55:03;;;;;;;58.33;25.87;;;7.80;97.00;;;;;;5110475;28;21330;-76
2021/05/01 00:57:30;;;;;;;60.60;27.33;;;7.90;97.00;;;;;;5107365;28;20474;-75
2021/05/01 00:59:56;;;;;;;66.93;28.97;;;7.90;96.60;;;;;;5099426;28;20428;-76
2021/05/01 01:02:27;;;;;;;63.77;26.60;;;7.90;96.20;;;;;;5111003;28;20448;-76
2021/05/01 01:04:53;;;;;;;56.90;26.57;;;7.80;96.10;;;;;;5110253;28;20865;-77
2021/05/01 01:07:19;;;;;;;55.70;25.10;;;7.90;96.30;;;;;;5111067;28;20420;-75
2021/05/01 01:09:46;;;;;;;64.73;25.47;;;7.80;96.40;;;;;;5110618;28;20473;-77
2021/05/01 01:12:12;;;;;;;56.47;26.10;;;7.80;96.50;;;;;;5109649;28;20546;-75
2021/05/01 01:14:38;;;;;;;57.63;25.47;;;7.70;96.30;;;;;;5111135;28;20955;-76
2021/05/01 01:17:04;;;;;;;58.17;25.47;;;7.70;96.20;;;;;;5110307;28;20224;-77
2021/05/01 01:19:30;;;;;;;54.50;25.17;;;7.70;96.50;;;;;;5111449;28;20797;-76
2021/05/01 01:21:56;;;;;;;61.40;26.33;;;7.60;96.50;;;;;;5110306;28;20448;-75
2021/05/01 01:24:24;;;;;;;61.10;27.93;;;7.60;96.70;;;;;;5110182;28;20435;-76
2021/05/01 01:26:50;;;;;;;71.43;27.60;;;7.50;96.90;;;;;;5111343;28;20201;-74
2021/05/01 01:29:16;;;;;;;68.53;29.70;;;7.60;97.20;;;;;;5112031;28;20951;-75
2021/05/01 01:31:43;;;;;;;66.30;28.90;;;7.50;97.30;;;;;;5113372;28;20471;-75
2021/05/01 01:34:09;;;;;;;64.03;28.07;;;7.50;97.50;;;;;;5115257;28;20902;-74
2021/05/01 01:36:35;;;;;;;69.27;29.47;;;7.60;97.50;;;;;;5101823;28;20451;-74
2021/05/01 01:39:00;;;;;;;64.63;28.60;;;7.60;97.40;;;;;;5114491;28;20179;-75
2021/05/01 01:41:26;;;;;;;60.87;28.57;;;7.60;97.40;;;;;;5098721;28;20291;-74
2021/05/01 01:43:52;;;;;;;65.27;27.10;;;7.60;97.50;;;;;;5094591;28;20836;-75
2021/05/01 01:46:18;;;;;;;61.80;26.83;;;7.60;97.50;;;;;;5109950;28;20425;-78
2021/05/01 01:48:43;;;;;;;66.60;27.00;;;7.70;97.50;;;;;;5104646;28;20262;-75
2021/05/01 01:51:09;;;;;;;64.67;27.47;;;7.70;97.50;;;;;;5107987;28;20678;-76
2021/05/01 01:53:35;;;;;;;71.57;29.57;;;7.70;97.40;;;;;;5103798;28;20210;-75
2021/05/01 01:56:01;;;;;;;67.80;29.67;;;7.60;97.10;;;;;;5111702;28;20182;-75
2021/05/01 01:58:26;;;;;;;75.07;32.63;;;7.60;97.30;;;;;;5102241;28;20235;-77
2021/05/01 02:00:54;;;;;;;60.60;28.90;;;7.60;97.50;;;;;;5100896;28;20635;-76
2021/05/01 02:03:20;;;;;;;57.37;26.90;;;7.50;97.50;;;;;;5102867;28;20213;-75
2021/05/01 02:05:46;;;;;;;65.17;29.10;;;7.60;97.50;;;;;;5093773;28;20845;-75
2021/05/01 02:08:12;;;;;;;63.97;28.03;;;7.60;97.40;;;;;;5104198;28;20444;-74
2021/05/01 02:10:39;;;;;;;56.13;26.07;;;7.60;97.50;;;;;;5098945;28;20503;-76
2021/05/01 02:13:06;;;;;;;62.60;27.27;;;7.70;97.60;;;;;;5112602;28;20472;-75
2021/05/01 02:15:33;;;;;;;69.17;29.50;;;7.80;97.70;;;;;;5114148;28;20447;-75
2021/05/01 02:18:00;;;;;;;67.17;29.37;;;7.90;97.80;;;;;;5114691;28;20485;-76
2021/05/01 02:20:33;;;;;;;64.00;30.37;;;7.90;97.50;;;;;;5110600;28;20416;-74
2021/05/01 02:22:59;;;;;;;74.53;31.17;;;7.90;97.40;;;;;;5124725;28;20440;-77
2021/05/01 02:25:26;;;;;;;76.60;31.00;;;8.00;97.30;;;;;;5125652;28;20425;-77
2021/05/01 02:27:53;;;;;;;68.30;30.63;;;8.00;96.90;;;;;;5126467;28;20428;-75
2021/05/01 02:30:27;;;;;;;68.97;31.07;;;8.10;96.50;;;;;;5113649;28;20436;-73
2021/05/01 02:32:54;;;;;;;63.27;29.00;;;8.10;96.20;;;;;;5110897;28;20484;-74
2021/05/01 02:35:39;;;;;;;73.67;31.87;;;8.20;95.80;;;;;;5109601;28;20458;-75
2021/05/01 02:38:05;;;;;;;73.50;31.83;;;8.20;95.40;;;;;;5125968;28;20428;-73
2021/05/01 02:40:32;;;;;;;75.27;31.20;;;8.20;95.50;;;;;;5116365;28;20432;-75
2021/05/01 02:43:03;;;;;;;75.53;32.27;;;8.20;95.50;;;;;;5106685;28;20464;-75
2021/05/01 02:45:29;;;;;;;71.20;32.53;;;8.20;95.50;;;;;;5112365;28;20464;-75
2021/05/01 02:47:54;;;;;;;72.93;32.00;;;8.20;95.60;;;;;;5101296;28;20467;-75
2021/05/01 02:50:20;;;;;;;77.30;32.10;;;8.20;95.70;;;;;;5102395;28;20425;-75
2021/05/01 02:52:46;;;;;;;74.67;32.77;;;8.20;95.70;;;;;;5114354;28;20614;-77
2021/05/01 02:55:13;;;;;;;74.90;33.53;;;8.20;95.70;;;;;;5101039;28;20278;-74
2021/05/01 02:57:39;;;;;;;80.07;34.33;;;8.20;95.60;;;;;;5115892;28;20424;-77
2021/05/01 03:00:15;;;;;;;71.97;35.00;;;8.20;95.60;;;;;;5120550;28;20482;-73
2021/05/01 03:02:42;;;;;;;77.70;32.23;;;8.20;95.70;;;;;;5115728;28;20455;-75
2021/05/01 03:05:08;;;;;;;70.67;31.17;;;8.20;95.80;;;;;;5098509;28;20435;-75
2021/05/01 03:07:35;;;;;;;69.57;31.30;;;8.20;95.90;;;;;;5116772;28;20412;-74
2021/05/01 03:10:09;;;;;;;65.83;31.30;;;8.20;96.00;;;;;;5117644;28;20420;-76
2021/05/01 03:12:35;;;;;;;74.00;31.17;;;8.20;96.00;;;;;;5116077;28;20468;-75
2021/05/01 03:15:01;;;;;;;70.27;31.17;;;8.10;95.90;;;;;;5113260;28;20477;-76
2021/05/01 03:17:27;;;;;;;73.90;32.00;;;8.10;95.80;;;;;;5119074;28;20178;-74
2021/05/01 03:19:53;;;;;;;69.47;31.70;;;8.10;95.60;;;;;;5127139;28;20424;-75
2021/05/01 03:22:18;;;;;;;71.07;30.87;;;8.10;95.60;;;;;;5127590;28;20239;-74
2021/05/01 03:24:44;;;;;;;70.33;31.77;;;8.10;95.40;;;;;;5110813;28;20207;-75
2021/05/01 03:27:10;;;;;;;79.43;33.93;;;8.10;95.50;;;;;;5121795;28;20183;-76
2021/05/01 03:29:36;;;;;;;74.03;33.20;;;8.00;95.80;;;;;;5116497;28;20198;-77
2021/05/01 03:32:01;;;;;;;70.10;31.13;;;8.00;95.90;;;;;;5097755;28;20706;-75
2021/05/01 03:34:27;;;;;;;80.73;32.80;;;8.00;96.10;;;;;;5110104;28;20230;-76
2021/05/01 03:36:53;;;;;;;72.97;31.43;;;8.00;96.30;;;;;;5107545;28;20409;-78
2021/05/01 03:39:19;;;;;;;66.77;29.40;;;8.10;96.40;;;;;;5108189;28;20563;-76
2021/05/01 03:41:45;;;;;;;66.83;29.73;;;8.10;96.30;;;;;;5120279;28;20206;-75
2021/05/01 03:44:11;;;;;;;72.73;30.53;;;8.00;96.20;;;;;;5107312;28;20478;-74
2021/05/01 03:46:37;;;;;;;71.17;30.37;;;8.00;96.30;;;;;;5111944;28;20190;-74
2021/05/01 03:49:03;;;;;;;71.07;32.20;;;8.10;96.40;;;;;;5110757;28;20428;-75
2021/05/01 03:51:29;;;;;;;69.37;30.20;;;8.10;96.30;;;;;;5111764;28;20261;-75
2021/05/01 03:53:55;;;;;;;75.47;32.00;;;8.00;96.30;;;;;;5110961;28;20927;-75
2021/05/01 03:56:21;;;;;;;74.40;30.77;;;8.00;96.30;;;;;;5098517;28;20923;-74
2021/05/01 03:58:46;;;;;;;67.70;30.03;;;8.00;96.40;;;;;;5099314;28;20265;-74
2021/05/01 04:01:12;;;;;;;70.53;30.20;;;8.10;96.60;;;;;;5109846;28;20282;-73
2021/05/01 04:03:38;;;;;;;77.97;33.10;;;8.10;96.70;;;;;;5112011;28;20646;-74
2021/05/01 04:06:05;;;;;;;74.47;30.43;;;8.10;96.60;;;;;;5111790;28;20212;-75
2021/05/01 04:08:32;;;;;;;76.00;33.33;;;8.10;96.60;;;;;;5102053;28;20182;-74
2021/05/01 04:10:58;;;;;;;75.07;30.37;;;8.10;96.60;;;;;;5096366;28;20419;-75
2021/05/01 04:13:24;;;;;;;72.73;30.73;;;8.10;96.50;;;;;;5113905;28;20437;-75
2021/05/01 04:15:50;;;;;;;78.10;32.03;;;8.10;96.70;;;;;;5113035;28;20424;-75
2021/05/01 04:18:15;;;;;;;69.83;30.23;;;8.10;96.70;;;;;;5112579;28;20417;-76
2021/05/01 04:20:42;;;;;;;59.43;27.07;;;8.10;96.70;;;;;;5111529;28;20175;-75
2021/05/01 04:23:10;;;;;;;70.83;32.60;;;8.20;96.60;;;;;;5113041;28;20716;-75
2021/05/01 04:25:36;;;;;;;63.80;28.33;;;8.20;96.30;;;;;;5113919;28;21110;-77
2021/05/01 04:28:03;;;;;;;60.60;28.33;;;8.20;96.00;;;;;;5110951;28;20425;-75
2021/05/01 04:30:29;;;;;;;73.23;30.73;;;8.30;96.00;;;;;;5110952;28;20974;-74
2021/05/01 04:32:55;;;;;;;69.77;30.10;;;8.30;95.80;;;;;;5110632;28;20464;-75
2021/05/01 04:35:21;;;;;;;67.90;28.47;;;8.30;95.80;;;;;;5110046;28;20421;-75
2021/05/01 04:37:47;;;;;;;78.37;33.10;;;8.30;95.60;;;;;;5103198;28;20182;-75
2021/05/01 04:40:13;;;;;;;76.00;33.20;;;8.20;95.60;;;;;;5097290;28;20420;-75
2021/05/01 04:42:46;;;;;;;83.07;36.83;;;8.20;95.80;;;;;;5111409;28;20198;-75
2021/05/01 04:45:13;;;;;;;81.73;33.10;;;8.10;96.10;;;;;;5110378;28;20553;-74
2021/05/01 04:47:39;;;;;;;83.00;36.07;;;8.00;96.50;;;;;;5111150;28;20420;-77
2021/05/01 04:50:06;;;;;;;89.87;36.77;;;7.90;96.70;;;;;;5110482;28;20419;-74
2021/05/01 04:52:33;;;;;;;86.93;35.33;;;7.90;96.90;;;;;;5097338;28;20542;-73
2021/05/01 04:55:02;;;;;;;80.80;36.20;;;7.80;97.30;;;;;;5110188;28;20416;-74
2021/05/01 04:57:28;;;;;;;79.50;33.73;;;7.80;97.60;;;;;;5112873;28;20539;-75
2021/05/01 04:59:54;;;;;;;88.57;36.67;;;7.80;97.70;;;;;;5112603;28;20432;-75
2021/05/01 05:02:20;;;;;;;93.83;38.07;;;7.80;97.80;;;;;;5110516;28;20275;-74
2021/05/01 05:04:45;;;;;;;87.87;38.03;;;7.90;97.80;;;;;;5114558;28;20182;-76
2021/05/01 05:07:11;;;;;;;84.10;34.67;;;7.90;97.80;;;;;;5117613;28;20272;-74
2021/05/01 05:09:37;;;;;;;81.80;34.47;;;8.00;97.80;;;;;;5111779;28;20550;-77
2021/05/01 05:12:03;;;;;;;79.97;33.60;;;8.00;97.90;;;;;;5124689;28;20270;-73
2021/05/01 05:14:28;;;;;;;87.90;33.50;;;8.10;97.60;;;;;;5124637;28;20182;-75
2021/05/01 05:16:54;;;;;;;74.53;30.80;;;8.10;97.30;;;;;;5128925;28;20439;-76
2021/05/01 05:19:20;;;;;;;70.57;31.30;;;8.20;97.00;;;;;;5127569;28;20182;-76
2021/05/01 05:21:45;;;;;;;85.33;31.70;;;8.20;96.70;;;;;;5123344;28;20206;-76
2021/05/01 05:24:11;;;;;;;77.30;32.20;;;8.20;96.50;;;;;;5118462;28;20208;-75
2021/05/01 05:26:39;;;;;;;82.13;32.70;;;8.30;96.50;;;;;;5114403;28;20659;-75
2021/05/01 05:29:04;;;;;;;75.17;32.90;;;8.30;96.40;;;;;;5113012;28;20689;-75
2021/05/01 05:31:30;;;;;;;86.20;34.53;;;8.20;96.30;;;;;;5114898;28;20460;-75
2021/05/01 05:33:56;;;;;;;74.83;32.53;;;8.20;96.30;;;;;;5106045;28;20193;-74
2021/05/01 05:36:21;;;;;;;72.63;33.30;;;8.10;96.30;;;;;;5109041;28;20214;-76
2021/05/01 05:38:47;;;;;;;79.13;33.80;;;8.10;96.60;;;;;;5114471;28;20177;-75
2021/05/01 05:41:13;;;;;;;81.00;35.40;;;8.20;96.90;;;;;;5114229;28;20197;-75
2021/05/01 05:43:39;;;;;;;87.60;33.97;;;8.10;96.80;;;;;;5114653;28;20181;-74
2021/05/01 05:46:14;;;;;;;75.43;34.60;;;7.90;97.40;;;;;;5100350;28;20266;-74
2021/05/01 05:48:40;;;;;;;84.07;34.33;;;7.90;97.90;;;;;;5112922;28;20285;-69
2021/05/01 05:51:07;;;;;;;82.77;35.60;;;8.00;97.80;;;;;;5113624;28;20800;-72
2021/05/01 05:53:33;;;;;;;86.47;36.07;;;8.00;97.70;;;;;;5111264;28;20521;-72
2021/05/01 05:55:59;;;;;;;88.27;36.80;;;8.00;97.80;;;;;;5094399;28;20419;-70
2021/05/01 05:58:25;;;;;;;82.40;36.70;;;7.90;98.00;;;;;;5099896;28;20421;-69
2021/05/01 06:00:51;;;;;;;83.50;35.53;;;7.90;98.00;;;;;;5092780;28;20175;-70
2021/05/01 06:03:18;;;;;;;85.43;34.03;;;8.00;98.00;;;;;;5101567;28;20445;-71
2021/05/01 06:05:48;;;;;;;85.30;35.30;;;8.10;97.80;;;;;;5090477;28;20425;-70
2021/05/01 06:08:15;;;;;;;114.93;46.13;;;8.30;97.50;;;;;;5101089;28;20912;-70
2021/05/01 06:10:44;;;;;;;88.23;32.97;;;8.20;97.00;;;;;;5102476;28;20433;-70
2021/05/01 06:13:12;;;;;;;86.30;36.53;;;8.20;96.90;;;;;;5102127;28;20472;-72
2021/05/01 06:15:39;;;;;;;79.70;34.47;;;8.10;97.00;;;;;;5110231;28;20444;-71
2021/05/01 06:18:06;;;;;;;80.57;33.60;;;8.00;97.00;;;;;;5110595;28;20999;-72
2021/05/01 06:20:33;;;;;;;74.63;31.80;;;8.20;97.20;;;;;;5110937;28;20424;-71
2021/05/01 06:23:01;;;;;;;69.00;29.37;;;8.30;96.70;;;;;;5111051;28;20444;-71
2021/05/01 06:25:28;;;;;;;73.97;30.17;;;8.30;95.90;;;;;;5108933;28;20435;-69
2021/05/01 06:27:54;;;;;;;65.13;29.23;;;8.50;95.60;;;;;;5097790;28;20444;-70
2021/05/01 06:30:22;;;;;;;80.67;34.50;;;8.60;95.20;;;;;;5095178;28;20517;-70
2021/05/01 06:32:48;;;;;;;67.90;29.83;;;8.60;94.00;;;;;;5098130;28;20473;-70
2021/05/01 06:35:15;;;;;;;66.90;30.07;;;8.70;93.30;;;;;;5107102;28;20448;-71
2021/05/01 06:37:41;;;;;;;68.37;30.07;;;8.70;92.20;;;;;;5097822;28;20923;-71
2021/05/01 06:40:15;;;;;;;56.90;26.40;;;8.70;92.70;;;;;;5089484;28;20183;-72
2021/05/01 06:42:55;;;;;;;66.30;29.60;;;8.50;92.30;;;;;;5091820;28;20452;-73
2021/05/01 06:45:21;;;;;;;51.27;22.83;;;8.60;92.70;;;;;;5109076;28;20567;-70
2021/05/01 06:47:54;;;;;;;55.53;25.17;;;8.60;91.50;;;;;;5095115;28;20425;-72
2021/05/01 06:50:26;;;;;;;56.43;23.53;;;8.50;90.60;;;;;;5090372;28;20437;-69
2021/05/01 06:52:52;;;;;;;60.30;26.80;;;8.60;91.30;;;;;;5089831;28;20559;-70
2021/05/01 06:55:20;;;;;;;68.83;30.33;;;8.70;91.30;;;;;;5088382;28;20457;-73
2021/05/01 06:57:48;;;;;;;56.27;26.13;;;8.90;91.20;;;;;;5104884;28;20424;-71
2021/05/01 07:00:16;;;;;;;59.60;26.77;;;8.90;90.40;;;;;;5089282;28;20474;-71
2021/05/01 07:03:00;;;;;;;55.70;26.60;;;8.90;89.90;;;;;;5088078;28;20453;-69
2021/05/01 07:05:26;;;;;;;56.30;25.17;;;9.00;89.30;;;;;;5088741;28;20420;-71
2021/05/01 07:07:51;;;;;;;53.20;24.00;;;9.00;89.50;;;;;;5089032;28;20442;-72
2021/05/01 07:10:19;;;;;;;47.17;22.20;;;9.10;89.60;;;;;;5088032;28;20426;-76
2021/05/01 07:12:46;;;;;;;50.23;23.10;;;9.10;88.60;;;;;;5087899;28;20222;-72
2021/05/01 07:15:17;;;;;;;47.00;22.97;;;9.00;88.90;;;;;;5089781;28;20445;-72
2021/05/01 07:17:44;;;;;;;49.07;22.53;;;9.10;89.30;;;;;;5087536;28;20429;-71
2021/05/01 07:20:12;;;;;;;53.00;21.83;;;9.20;89.00;;;;;;5101786;28;20528;-71
2021/05/01 07:22:38;;;;;;;51.97;22.63;;;9.00;88.00;;;;;;5089011;28;20441;-73
2021/05/01 07:25:06;;;;;;;45.87;22.30;;;8.90;88.60;;;;;;5088283;28;20424;-72
2021/05/01 07:27:35;;;;;;;49.90;24.27;;;8.80;89.30;;;;;;5097210;28;20189;-70
2021/05/01 07:30:03;;;;;;;46.30;21.87;;;8.90;89.70;;;;;;5106751;28;20454;-71
2021/05/01 07:32:32;;;;;;;50.10;23.23;;;9.00;89.50;;;;;;5087218;28;20479;-70
2021/05/01 07:35:01;;;;;;;54.43;25.73;;;8.90;89.30;;;;;;5087333;28;20437;-74
2021/05/01 07:37:29;;;;;;;45.47;21.47;;;9.00;89.70;;;;;;5088554;28;20432;-71
2021/05/01 07:39:56;;;;;;;52.60;24.87;;;9.00;89.00;;;;;;5087817;28;20865;-69
2021/05/01 07:42:22;;;;;;;50.40;24.13;;;9.10;88.90;;;;;;5088546;28;20471;-71
2021/05/01 07:44:50;;;;;;;55.93;26.27;;;9.10;89.20;;;;;;5092233;28;20539;-71
2021/05/01 07:47:21;;;;;;;53.67;24.93;;;9.10;88.90;;;;;;5108373;28;20467;-72
2021/05/01 07:49:48;;;;;;;51.63;23.80;;;8.90;88.90;;;;;;5108436;28;20424;-70
2021/05/01 07:52:17;;;;;;;54.07;22.97;;;8.80;89.60;;;;;;5096218;28;20468;-69
2021/05/01 07:54:44;;;;;;;49.87;22.23;;;8.90;90.00;;;;;;5088301;28;20419;-69
2021/05/01 07:57:12;;;;;;;53.10;23.07;;;9.00;88.70;;;;;;5087498;28;20787;-70
2021/05/01 07:59:39;;;;;;;44.40;21.23;;;9.20;88.30;;;;;;5100812;28;20534;-71
2021/05/01 08:02:05;;;;;;;47.13;21.70;;;9.30;87.70;;;;;;5088515;28;21140;-71
2021/05/01 08:04:31;;;;;;;53.87;24.30;;;9.40;87.40;;;;;;5089277;28;21075;-70
2021/05/01 08:06:58;;;;;;;48.23;21.53;;;9.50;87.60;;;;;;5088551;28;20433;-71
2021/05/01 08:09:23;;;;;;;45.13;21.80;;;9.50;86.90;;;;;;5089833;28;20433;-71
2021/05/01 08:11:49;;;;;;;46.00;24.10;;;9.50;86.80;;;;;;5087614;28;20537;-74
2021/05/01 08:14:15;;;;;;;51.27;23.37;;;9.30;86.90;;;;;;5103938;28;20187;-76
2021/05/01 08:16:41;;;;;;;52.60;23.20;;;9.10;87.30;;;;;;5102441;28;20431;-76
2021/05/01 08:19:07;;;;;;;55.10;24.60;;;9.00;87.70;;;;;;5104240;28;20201;-76
2021/05/01 08:21:35;;;;;;;48.10;21.80;;;9.20;87.30;;;;;;5110725;28;20479;-73
2021/05/01 08:24:02;;;;;;;57.83;26.57;;;9.30;87.10;;;;;;5111334;28;20254;-75
2021/05/01 08:26:28;;;;;;;41.07;21.93;;;9.40;86.90;;;;;;5110813;28;20428;-76
2021/05/01 08:28:54;;;;;;;44.03;21.10;;;9.50;86.80;;;;;;5109911;28;20448;-74
2021/05/01 08:31:20;;;;;;;43.33;20.90;;;9.50;86.60;;;;;;5110695;28;21024;-75
2021/05/01 08:33:45;;;;;;;45.60;21.47;;;9.40;85.90;;;;;;5103691;28;20727;-76
2021/05/01 08:36:11;;;;;;;43.63;21.80;;;9.60;86.60;;;;;;5089976;28;20796;-72
2021/05/01 08:38:37;;;;;;;40.97;20.10;;;9.60;86.20;;;;;;5101129;28;20198;-72
2021/05/01 08:41:06;;;;;;;40.60;20.90;;;9.50;85.50;;;;;;5102490;28;20196;-73
2021/05/01 08:43:33;;;;;;;42.47;19.60;;;9.50;85.00;;;;;;5106728;28;20219;-75
2021/05/01 08:46:01;;;;;;;39.27;20.20;;;9.50;85.50;;;;;;5094880;28;20429;-74
2021/05/01 08:48:28;;;;;;;39.47;20.77;;;9.70;85.70;;;;;;5098720;28;20452;-75
2021/05/01 08:50:59;;;;;;;40.70;20.17;;;9.70;84.40;;;;;;5100386;28;20432;-76
2021/05/01 08:53:26;;;;;;;42.70;20.93;;;9.60;84.90;;;;;;5110584;28;20460;-73
2021/05/01 08:55:52;;;;;;;35.90;18.60;;;9.70;84.90;;;;;;5098459;28;20456;-74
2021/05/01 08:58:18;;;;;;;45.80;19.63;;;9.80;84.70;;;;;;5091289;28;20457;-76
2021/05/01 09:00:47;;;;;;;40.00;20.00;;;9.80;84.30;;;;;;5091008;28;20186;-75
2021/05/01 09:03:14;;;;;;;41.30;19.30;;;9.80;84.60;;;;;;5111535;28;20202;-74
2021/05/01 09:05:41;;;;;;;43.87;21.00;;;9.90;84.40;;;;;;5098750;28;20437;-73
2021/05/01 09:08:09;;;;;;;46.13;21.43;;;9.80;84.00;;;;;;5093818;28;20493;-74
2021/05/01 09:10:51;;;;;;;41.10;20.13;;;9.70;84.60;;;;;;5095373;28;20806;-74
2021/05/01 09:13:26;;;;;;;42.43;21.20;;;9.70;85.00;;;;;;5109686;28;20566;-76
2021/05/01 09:16:08;;;;;;;44.13;21.67;;;9.80;85.30;;;;;;5105765;28;20857;-74
2021/05/01 09:18:50;;;;;;;46.03;21.07;;;9.90;84.40;;;;;;5107879;28;20800;-77
2021/05/01 09:21:20;;;;;;;46.07;21.83;;;9.90;84.10;;;;;;5092208;28;20429;-74
2021/05/01 09:23:46;;;;;;;41.63;20.40;;;9.80;84.00;;;;;;5089751;28;20598;-75
2021/05/01 09:26:12;;;;;;;37.70;18.67;;;9.80;84.90;;;;;;5090959;28;20429;-73
2021/05/01 09:28:50;;;;;;;42.43;18.93;;;9.80;84.00;;;;;;5098158;28;20451;-75
2021/05/01 09:31:18;;;;;;;40.37;19.83;;;9.70;84.00;;;;;;5099056;28;20527;-75
2021/05/01 09:33:52;;;;;;;43.97;20.03;;;9.80;84.60;;;;;;5089182;28;20461;-74
2021/05/01 09:36:24;;;;;;;39.27;19.70;;;10.00;83.80;;;;;;5102455;28;20485;-73
2021/05/01 09:38:51;;;;;;;38.77;19.00;;;10.30;83.70;;;;;;5095847;28;20516;-74
2021/05/01 09:41:26;;;;;;;39.30;19.30;;;10.20;82.20;;;;;;5097981;28;20589;-73
2021/05/01 09:44:07;;;;;;;46.50;21.30;;;10.10;82.40;;;;;;5102797;28;20430;-74
2021/05/01 09:46:42;;;;;;;38.13;20.57;;;10.10;83.00;;;;;;5103483;28;20436;-75
2021/05/01 09:49:09;;;;;;;43.27;19.27;;;10.30;83.10;;;;;;5091655;28;20784;-73
2021/05/01 09:51:44;;;;;;;41.53;20.50;;;10.50;81.80;;;;;;5112413;28;20463;-75
2021/05/01 09:54:11;;;;;;;43.03;21.00;;;10.50;81.70;;;;;;5106129;28;20492;-74
2021/05/01 09:56:40;;;;;;;43.03;21.50;;;10.60;81.80;;;;;;5101399;28;20421;-74
2021/05/01 09:59:06;;;;;;;38.77;20.03;;;10.40;80.50;;;;;;5103762;28;20870;-74
2021/05/01 10:01:32;;;;;;;49.93;21.40;;;10.20;81.70;;;;;;5100229;28;20451;-75
2021/05/01 10:04:18;;;;;;;39.30;19.60;;;10.10;81.40;;;;;;5104644;28;20800;-74
2021/05/01 10:06:48;;;;;;;45.20;22.10;;;10.20;81.80;;;;;;5098029;28;20485;-75
2021/05/01 10:09:29;;;;;;;41.67;20.10;;;10.40;80.80;;;;;;5109481;28;20812;-73
2021/05/01 10:12:15;;;;;;;46.90;21.10;;;10.70;80.20;;;;;;5105845;28;20527;-76
2021/05/01 10:14:45;;;;;;;44.30;21.93;;;10.80;79.50;;;;;;5115371;28;20531;-76
2021/05/01 10:17:16;;;;;;;43.07;22.43;;;10.80;78.40;;;;;;5116686;28;20874;-75
2021/05/01 10:19:48;;;;;;;39.27;19.80;;;10.70;79.20;;;;;;5113924;28;20511;-75
2021/05/01 10:22:39;;;;;;;41.70;20.57;;;10.90;78.60;;;;;;5112866;28;20561;-74
2021/05/01 10:25:11;;;;;;;43.20;21.20;;;10.80;77.60;;;;;;5113731;28;20427;-75
2021/05/01 10:30:52;;;;;;;44.00;20.90;;;11.30;78.70;;;;;;5103993;28;20550;-73
2021/05/01 10:33:32;;;;;;;51.37;24.40;;;11.30;75.80;;;;;;5111746;28;20480;-79
2021/05/01 10:36:20;;;;;;;40.77;20.20;;;10.80;77.10;;;;;;5093056;28;20429;-73
2021/05/01 10:39:00;;;;;;;42.83;21.70;;;10.40;79.20;;;;;;5091398;28;20425;-74
2021/05/01 10:41:29;;;;;;;47.10;22.07;;;10.50;78.70;;;;;;5099384;28;20550;-74
2021/05/01 10:43:57;;;;;;;44.00;21.47;;;10.70;78.10;;;;;;5110578;28;20432;-74
2021/05/01 10:46:34;;;;;;;47.27;23.07;;;10.80;78.00;;;;;;5111964;28;20952;-75
2021/05/01 10:49:03;;;;;;;45.53;21.83;;;10.90;77.70;;;;;;5106467;28;20421;-73
2021/05/01 10:51:47;;;;;;;41.27;21.73;;;11.10;77.60;;;;;;5103747;28;20424;-74
2021/05/01 10:54:16;;;;;;;48.53;23.20;;;11.30;76.80;;;;;;5091630;28;20429;-76
2021/05/01 10:56:54;;;;;;;42.77;21.60;;;11.40;76.70;;;;;;5106441;28;20429;-75
2021/05/01 10:59:22;;;;;;;43.50;22.73;;;11.60;77.10;;;;;;5111308;28;20452;-74
2021/05/01 11:01:53;;;;;;;49.17;22.17;;;11.50;75.80;;;;;;5106224;28;20449;-75
2021/05/01 11:04:26;;;;;;;45.50;23.70;;;11.40;76.40;;;;;;5101867;28;20464;-76
2021/05/01 11:07:07;;;;;;;52.80;24.37;;;11.40;76.50;;;;;;5112173;28;20424;-76
2021/05/01 11:09:40;;;;;;;50.83;24.60;;;11.20;78.10;;;;;;5111291;28;20512;-76
2021/05/01 11:12:09;;;;;;;47.50;26.23;;;11.10;79.70;;;;;;5110032;28;20524;-76
2021/05/01 11:14:46;;;;;;;51.57;24.10;;;10.90;80.30;;;;;;5114228;28;20424;-75
2021/05/01 11:17:20;;;;;;;43.40;22.80;;;10.70;81.10;;;;;;5103132;28;20793;-74
2021/05/01 11:19:47;;;;;;;49.43;25.07;;;10.80;80.90;;;;;;5108443;28;20425;-75
2021/05/01 11:22:14;;;;;;;54.10;26.07;;;10.90;80.80;;;;;;5103520;28;20449;-76
2021/05/01 11:24:42;;;;;;;62.10;29.10;;;10.90;80.80;;;;;;5095109;28;20449;-76
2021/05/01 11:27:08;;;;;;;46.57;23.90;;;11.10;80.80;;;;;;5103793;28;20436;-74
2021/05/01 11:29:34;;;;;;;51.20;24.20;;;11.10;79.50;;;;;;5091163;28;20453;-76
2021/05/01 11:32:02;;;;;;;50.57;25.60;;;11.00;80.20;;;;;;5095007;28;20494;-74
2021/05/01 11:34:32;;;;;;;52.83;25.13;;;11.00;80.90;;;;;;5109077;27;20413;-77
2021/05/01 11:37:04;;;;;;;50.77;25.10;;;11.00;81.70;;;;;;5103291;28;20493;-76
2021/05/01 11:39:30;;;;;;;52.67;25.07;;;11.10;82.20;;;;;;5104550;28;20443;-75
2021/05/01 11:41:57;;;;;;;50.93;24.60;;;11.20;81.10;;;;;;5110801;28;20980;-74
2021/05/01 11:44:25;;;;;;;44.90;21.33;;;11.40;81.10;;;;;;5102231;28;20186;-75
2021/05/01 11:47:14;;;;;;;43.50;22.20;;;11.40;80.00;;;;;;5095581;28;20790;-76
2021/05/01 11:49:40;;;;;;;51.60;24.90;;;11.10;80.90;;;;;;5096928;28;20425;-76
2021/05/01 11:52:18;;;;;;;52.20;23.80;;;11.10;80.00;;;;;;5103036;28;20853;-73
2021/05/01 11:55:15;;;;;;;48.77;22.63;;;10.90;81.70;;;;;;5101491;28;20432;-75
2021/05/01 11:57:49;;;;;;;56.77;25.63;;;11.00;81.90;;;;;;5100353;28;20509;-73
2021/05/01 12:00:35;;;;;;;51.63;25.58;;;10.90;81.80;;;;;;5101784;28;20416;-74
2021/05/01 12:03:23;;;;;;;53.40;26.27;;;10.90;82.50;;;;;;5109204;28;20245;-75
2021/05/01 12:05:58;;;;;;;47.10;23.97;;;11.00;81.40;;;;;;5095753;28;20421;-77
2021/05/01 12:08:26;;;;;;;54.50;25.60;;;11.20;81.10;;;;;;5091770;28;20413;-77
2021/05/01 12:10:54;;;;;;;51.83;25.60;;;11.30;81.80;;;;;;5102579;28;20432;-74
2021/05/01 12:13:35;;;;;;;51.37;24.43;;;11.40;80.00;;;;;;5108107;28;21085;-75
2021/05/01 12:16:02;;;;;;;46.70;24.80;;;11.30;79.70;;;;;;5104265;28;20439;-75
2021/05/01 12:18:41;;;;;;;52.30;25.47;;;11.30;80.60;;;;;;5110563;28;20452;-75
2021/05/01 12:21:07;;;;;;;59.00;29.07;;;11.50;80.20;;;;;;5105184;28;20489;-75
2021/05/01 12:23:48;;;;;;;48.93;25.53;;;11.60;79.30;;;;;;5102331;28;20520;-75
2021/05/01 12:26:32;;;;;;;51.53;23.80;;;11.50;79.30;;;;;;5095067;28;20859;-76
2021/05/01 12:29:20;;;;;;;56.23;26.70;;;11.30;79.70;;;;;;5107039;28;20439;-74
2021/05/01 12:31:47;;;;;;;45.93;23.40;;;11.20;80.20;;;;;;5111033;28;20496;-75
2021/05/01 12:34:13;;;;;;;48.83;24.73;;;11.40;80.80;;;;;;5105674;28;20536;-77
2021/05/01 12:36:47;;;;;;;49.60;23.57;;;11.50;79.70;;;;;;5111105;28;20427;-75
2021/05/01 12:39:14;;;;;;;46.67;24.30;;;11.50;79.30;;;;;;5103985;28;20423;-75
2021/05/01 12:41:43;;;;;;;44.50;23.10;;;11.30;79.70;;;;;;5097217;28;20437;-74
2021/05/01 12:44:29;;;;;;;50.43;25.47;;;11.30;80.90;;;;;;5096532;28;20512;-76